Time;durP1;ratioP1;P1;durP2;ratioP2;P2;SDS_P1;SDS_P2;PMS_P1;PMS_P2;Temp;Humidity;BMP_temperature;BMP_pressure;BME280_temperature;BME280_humidity;BME280_pressure;Samples;Min_cycle;Max_cycle;Signal;HPM_P1;HPM_P2
2023/06/26 00:02:55;;;;;;;14.93;5.85;;;;;;;;;;5100336;28;20031;-67
2023/06/26 00:06:38;;;;;;;15.30;6.18;;;;;;;;;;5095249;28;20298;-65
2023/06/26 00:10:16;;;;;;;14.32;6.18;;;;;;;;;;5101877;28;20055;-66
2023/06/26 00:13:57;;;;;;;13.75;5.75;;;;;;;;;;5107662;28;20055;-67
2023/06/26 00:17:37;;;;;;;11.07;5.90;;;;;;;;;;5101859;28;20043;-68
2023/06/26 00:21:19;;;;;;;16.65;6.13;;;;;;;;;;5106087;28;20051;-65
2023/06/26 00:24:18;;;;;;;12.90;5.97;;;;;;;;;;5097129;28;20074;-68
2023/06/26 00:26:47;;;;;;;15.55;6.55;;;;;;;;;;5108669;28;20511;-66
2023/06/26 00:29:14;;;;;;;13.05;6.13;;;;;;;;;;5105674;28;20047;-68
2023/06/26 00:31:41;;;;;;;13.98;6.63;;;;;;;;;;5104929;28;20051;-67
2023/06/26 00:34:06;;;;;;;14.77;6.10;;;;;;;;;;5083419;28;20039;-67
2023/06/26 00:36:32;;;;;;;14.85;5.53;;;;;;;;;;5111895;28;20112;-66
2023/06/26 00:39:38;;;;;;;12.10;5.13;;;;;;;;;;5108117;28;20047;-65
2023/06/26 00:43:18;;;;;;;9.43;4.88;;;;;;;;;;5105640;28;20039;-68
2023/06/26 00:46:59;;;;;;;11.02;4.90;;;;;;;;;;5109105;28;20535;-66
2023/06/26 00:50:41;;;;;;;8.25;4.57;;;;;;;;;;5103056;27;20415;-65
2023/06/26 00:53:52;;;;;;;9.77;4.10;;;;;;;;;;5105528;27;20062;-69
2023/06/26 00:56:57;;;;;;;14.00;4.07;;;;;;;;;;5102458;27;20062;-66
2023/06/26 01:00:38;;;;;;;10.20;4.35;;;;;;;;;;5108093;27;20048;-67
2023/06/26 01:03:25;;;;;;;13.77;5.43;;;;;;;;;;5108468;27;20036;-66
2023/06/26 01:05:52;;;;;;;18.08;5.22;;;;;;;;;;5105378;27;20127;-68
2023/06/26 01:08:20;;;;;;;11.60;4.63;;;;;;;;;;5111505;27;20415;-67
2023/06/26 01:10:47;;;;;;;12.35;4.82;;;;;;;;;;5100899;27;20069;-65
2023/06/26 01:13:14;;;;;;;15.23;5.60;;;;;;;;;;5108023;27;20051;-66
2023/06/26 01:15:40;;;;;;;18.27;5.72;;;;;;;;;;5090142;28;20557;-65
2023/06/26 01:18:07;;;;;;;12.27;4.75;;;;;;;;;;5109600;28;20039;-65
2023/06/26 01:20:37;;;;;;;9.10;3.85;;;;;;;;;;5095827;28;20047;-65
2023/06/26 01:23:05;;;;;;;6.88;3.78;;;;;;;;;;5104091;28;20047;-64
2023/06/26 01:26:12;;;;;;;7.68;4.25;;;;;;;;;;5092449;27;20561;-67
2023/06/26 01:28:42;;;;;;;7.90;3.50;;;;;;;;;;5099830;28;20110;-67
2023/06/26 01:31:10;;;;;;;9.88;3.88;;;;;;;;;;5104584;28;20044;-66
2023/06/26 01:33:38;;;;;;;8.88;4.63;;;;;;;;;;5104156;28;20066;-67
2023/06/26 01:36:04;;;;;;;10.25;4.38;;;;;;;;;;5099314;28;20068;-67
2023/06/26 01:38:30;;;;;;;12.32;5.10;;;;;;;;;;5100772;28;20063;-68
2023/06/26 01:40:56;;;;;;;10.13;4.70;;;;;;;;;;5103778;28;20051;-68
2023/06/26 01:44:00;;;;;;;11.45;4.80;;;;;;;;;;5099524;28;20052;-69
2023/06/26 01:47:01;;;;;;;8.23;4.35;;;;;;;;;;5099403;28;20048;-70
2023/06/26 01:49:39;;;;;;;6.85;4.47;;;;;;;;;;5103230;28;20095;-68
2023/06/26 01:52:33;;;;;;;7.82;5.20;;;;;;;;;;5090911;28;20067;-68
2023/06/26 01:55:16;;;;;;;9.15;4.88;;;;;;;;;;5090665;28;20385;-67
2023/06/26 01:58:22;;;;;;;8.63;5.23;;;;;;;;;;5094686;28;20108;-66
2023/06/26 02:02:02;;;;;;;8.20;4.53;;;;;;;;;;5097866;28;20548;-66
2023/06/26 02:05:44;;;;;;;12.02;4.78;;;;;;;;;;5096251;27;20047;-67
2023/06/26 02:09:23;;;;;;;7.30;4.63;;;;;;;;;;5094499;28;20055;-70
2023/06/26 02:13:03;;;;;;;7.63;4.55;;;;;;;;;;5103227;28;20052;-67
2023/06/26 02:16:44;;;;;;;5.93;4.00;;;;;;;;;;5100487;28;20086;-68
2023/06/26 02:20:24;;;;;;;7.05;4.35;;;;;;;;;;5102755;28;20100;-70
2023/06/26 02:24:05;;;;;;;6.75;3.83;;;;;;;;;;5098997;28;20056;-68
2023/06/26 02:27:47;;;;;;;7.78;4.18;;;;;;;;;;5101118;28;20054;-68
2023/06/26 02:31:04;;;;;;;8.45;4.38;;;;;;;;;;5102632;28;20411;-68
2023/06/26 02:33:32;;;;;;;7.18;4.40;;;;;;;;;;5098785;28;20044;-67
2023/06/26 02:35:58;;;;;;;6.97;4.55;;;;;;;;;;5095332;28;20040;-67
2023/06/26 02:38:24;;;;;;;9.77;4.70;;;;;;;;;;5099407;28;20387;-68
2023/06/26 02:40:50;;;;;;;9.65;4.47;;;;;;;;;;5094983;28;20055;-68
2023/06/26 02:43:16;;;;;;;7.22;4.40;;;;;;;;;;5105804;28;20489;-68
2023/06/26 02:45:43;;;;;;;8.30;4.20;;;;;;;;;;5103205;28;20059;-66
2023/06/26 02:48:09;;;;;;;6.93;4.80;;;;;;;;;;5099401;28;20047;-65
2023/06/26 02:50:34;;;;;;;7.28;4.63;;;;;;;;;;5102310;27;20047;-66
2023/06/26 02:53:00;;;;;;;8.23;5.05;;;;;;;;;;5089445;28;20061;-67
2023/06/26 02:55:27;;;;;;;8.15;5.00;;;;;;;;;;5091799;28;20094;-66
2023/06/26 02:57:53;;;;;;;8.05;4.68;;;;;;;;;;5100442;28;20504;-68
2023/06/26 03:00:19;;;;;;;11.43;5.50;;;;;;;;;;5094330;28;20044;-68
2023/06/26 03:02:45;;;;;;;8.55;4.88;;;;;;;;;;5102910;28;20040;-66
2023/06/26 03:05:13;;;;;;;8.52;4.55;;;;;;;;;;5103890;28;20138;-68
2023/06/26 03:07:39;;;;;;;9.40;5.00;;;;;;;;;;5101084;28;20054;-68
2023/06/26 03:10:05;;;;;;;10.57;5.38;;;;;;;;;;5091294;28;20044;-67
2023/06/26 03:12:31;;;;;;;9.75;4.97;;;;;;;;;;5099422;28;20424;-68
2023/06/26 03:14:57;;;;;;;9.50;4.70;;;;;;;;;;5095332;28;20052;-68
2023/06/26 03:17:24;;;;;;;8.30;4.70;;;;;;;;;;5096944;28;20457;-68
2023/06/26 03:19:49;;;;;;;9.98;5.00;;;;;;;;;;5104934;28;20044;-67
2023/06/26 03:22:16;;;;;;;9.73;4.80;;;;;;;;;;5098628;28;20058;-67
2023/06/26 03:24:45;;;;;;;7.95;4.45;;;;;;;;;;5102132;28;20047;-67
2023/06/26 03:27:11;;;;;;;11.68;4.72;;;;;;;;;;5101736;28;20715;-68
2023/06/26 03:29:37;;;;;;;9.15;5.28;;;;;;;;;;5092909;28;20054;-67
2023/06/26 03:32:04;;;;;;;8.93;5.20;;;;;;;;;;5098802;28;20518;-68
2023/06/26 03:34:29;;;;;;;8.98;5.45;;;;;;;;;;5096843;28;20472;-65
2023/06/26 03:36:55;;;;;;;9.63;4.78;;;;;;;;;;5101702;28;20047;-68
2023/06/26 03:39:22;;;;;;;8.40;4.97;;;;;;;;;;5094083;28;20679;-67
2023/06/26 03:41:49;;;;;;;7.53;4.97;;;;;;;;;;5095074;28;20624;-67
2023/06/26 03:44:15;;;;;;;9.20;5.00;;;;;;;;;;5098666;28;20062;-69
2023/06/26 03:46:41;;;;;;;9.75;5.32;;;;;;;;;;5095709;28;20056;-69
2023/06/26 03:49:07;;;;;;;8.00;4.80;;;;;;;;;;5103064;28;20461;-67
2023/06/26 03:51:33;;;;;;;8.35;4.60;;;;;;;;;;5095983;28;20067;-68
2023/06/26 03:53:59;;;;;;;7.22;4.30;;;;;;;;;;5093492;28;20056;-67
2023/06/26 03:56:26;;;;;;;9.00;4.22;;;;;;;;;;5092457;28;20447;-66
2023/06/26 03:58:52;;;;;;;11.40;4.47;;;;;;;;;;5105684;28;20051;-68
2023/06/26 04:01:19;;;;;;;8.25;4.20;;;;;;;;;;5099424;28;20395;-68
2023/06/26 04:03:45;;;;;;;8.07;4.03;;;;;;;;;;5098196;28;20507;-71
2023/06/26 04:06:11;;;;;;;10.05;4.32;;;;;;;;;;5098982;28;20067;-67
2023/06/26 04:08:37;;;;;;;7.05;4.15;;;;;;;;;;5105498;28;20140;-69
2023/06/26 04:11:03;;;;;;;9.95;4.25;;;;;;;;;;5096876;28;20040;-66
2023/06/26 04:13:29;;;;;;;7.82;4.10;;;;;;;;;;5098724;28;20056;-68
2023/06/26 04:15:55;;;;;;;7.25;4.25;;;;;;;;;;5096384;28;20052;-67
2023/06/26 04:18:21;;;;;;;14.32;4.63;;;;;;;;;;5099544;28;20052;-68
2023/06/26 04:21:07;;;;;;;6.93;4.28;;;;;;;;;;5104156;28;20399;-68
2023/06/26 04:23:33;;;;;;;6.70;4.18;;;;;;;;;;5106205;28;20068;-67
2023/06/26 04:25:59;;;;;;;9.05;4.32;;;;;;;;;;5105635;28;20056;-66
2023/06/26 04:28:25;;;;;;;9.15;4.40;;;;;;;;;;5110890;27;20052;-67
2023/06/26 04:30:53;;;;;;;9.98;4.53;;;;;;;;;;5107436;28;20047;-68
2023/06/26 04:33:19;;;;;;;9.18;4.57;;;;;;;;;;5107084;28;20044;-66
2023/06/26 04:35:48;;;;;;;9.68;4.63;;;;;;;;;;5089882;28;20092;-68
2023/06/26 04:38:15;;;;;;;8.05;4.63;;;;;;;;;;5100223;28;20097;-66
2023/06/26 04:40:42;;;;;;;8.05;4.32;;;;;;;;;;5107325;27;20054;-67
2023/06/26 04:43:08;;;;;;;11.80;4.53;;;;;;;;;;5105950;28;20052;-68
2023/06/26 04:45:34;;;;;;;9.15;4.10;;;;;;;;;;5098378;28;20781;-68
2023/06/26 04:48:00;;;;;;;12.18;4.47;;;;;;;;;;5107193;28;20051;-68
2023/06/26 04:50:28;;;;;;;13.02;4.30;;;;;;;;;;5101205;28;20277;-67
2023/06/26 04:52:55;;;;;;;10.25;4.40;;;;;;;;;;5102424;28;20129;-68
2023/06/26 04:55:21;;;;;;;8.07;4.65;;;;;;;;;;5095385;28;20157;-67
2023/06/26 04:57:47;;;;;;;16.75;5.35;;;;;;;;;;5112002;28;20126;-70
2023/06/26 05:00:15;;;;;;;18.20;6.55;;;;;;;;;;5099863;28;20055;-69
2023/06/26 05:02:41;;;;;;;21.40;8.95;;;;;;;;;;5105802;27;20055;-67
2023/06/26 05:05:07;;;;;;;17.70;9.25;;;;;;;;;;5087701;28;20054;-65
2023/06/26 05:07:33;;;;;;;25.27;9.50;;;;;;;;;;5111358;28;20043;-66
2023/06/26 05:10:00;;;;;;;19.42;10.85;;;;;;;;;;5101122;28;20052;-67
2023/06/26 05:12:26;;;;;;;22.98;10.32;;;;;;;;;;5087893;28;20055;-67
2023/06/26 05:14:52;;;;;;;21.40;9.02;;;;;;;;;;5103334;28;20042;-67
2023/06/26 05:17:18;;;;;;;16.00;8.38;;;;;;;;;;5105624;28;20278;-67
2023/06/26 05:20:24;;;;;;;17.27;8.50;;;;;;;;;;5099944;28;20138;-70
2023/06/26 05:23:34;;;;;;;16.00;7.50;;;;;;;;;;5103140;28;20056;-69
2023/06/26 05:26:34;;;;;;;10.98;6.07;;;;;;;;;;5105947;28;20112;-70
2023/06/26 05:29:01;;;;;;;14.95;6.50;;;;;;;;;;5099580;28;20051;-69
2023/06/26 05:32:07;;;;;;;20.77;5.97;;;;;;;;;;5099961;28;20530;-69
2023/06/26 05:35:47;;;;;;;12.88;5.57;;;;;;;;;;5099194;28;20039;-68
2023/06/26 05:39:28;;;;;;;17.05;5.65;;;;;;;;;;5089294;27;20047;-68
2023/06/26 05:43:08;;;;;;;20.05;7.85;;;;;;;;;;5082106;28;20196;-71
2023/06/26 05:46:49;;;;;;;22.20;6.80;;;;;;;;;;5071522;27;20048;-69
2023/06/26 05:50:29;;;;;;;11.52;5.50;;;;;;;;;;5097217;28;20155;-71
2023/06/26 05:53:52;;;;;;;12.75;5.20;;;;;;;;;;5103236;28;20056;-71
2023/06/26 05:57:19;;;;;;;14.50;5.43;;;;;;;;;;5075251;28;20534;-72
2023/06/26 06:00:59;;;;;;;14.60;5.40;;;;;;;;;;5095488;28;20059;-68
2023/06/26 06:04:40;;;;;;;17.02;5.40;;;;;;;;;;5102028;28;20050;-69
2023/06/26 06:08:20;;;;;;;11.02;4.72;;;;;;;;;;5103435;28;20078;-71
2023/06/26 06:12:01;;;;;;;12.35;5.13;;;;;;;;;;5092661;28;20590;-67
2023/06/26 06:15:41;;;;;;;13.05;4.90;;;;;;;;;;5098553;28;20573;-71
2023/06/26 06:19:21;;;;;;;15.43;5.97;;;;;;;;;;5101718;28;20054;-68
2023/06/26 06:23:02;;;;;;;15.38;5.85;;;;;;;;;;5106873;28;20031;-69
2023/06/26 06:26:42;;;;;;;12.43;4.80;;;;;;;;;;5103867;28;20391;-68
2023/06/26 06:30:22;;;;;;;16.00;4.90;;;;;;;;;;5098502;28;20132;-66
2023/06/26 06:33:24;;;;;;;12.10;5.00;;;;;;;;;;5090449;28;20377;-69
2023/06/26 06:35:50;;;;;;;12.02;4.40;;;;;;;;;;5078240;28;20442;-66
2023/06/26 06:38:16;;;;;;;13.38;4.30;;;;;;;;;;5080477;28;20047;-65
2023/06/26 06:40:42;;;;;;;12.50;5.00;;;;;;;;;;5103095;27;20086;-64
2023/06/26 06:43:08;;;;;;;10.38;4.50;;;;;;;;;;5104545;28;20473;-65
2023/06/26 06:45:34;;;;;;;13.90;4.53;;;;;;;;;;5089343;28;20060;-68
2023/06/26 06:48:00;;;;;;;9.93;4.18;;;;;;;;;;5095006;28;20432;-66
2023/06/26 06:50:26;;;;;;;14.40;4.97;;;;;;;;;;5103517;27;20071;-66
2023/06/26 06:52:52;;;;;;;15.93;4.90;;;;;;;;;;5103651;28;20595;-67
2023/06/26 06:55:18;;;;;;;10.13;4.85;;;;;;;;;;5086114;28;20055;-67
2023/06/26 06:57:44;;;;;;;14.27;5.10;;;;;;;;;;5098642;28;20403;-67
2023/06/26 07:00:14;;;;;;;12.10;5.10;;;;;;;;;;5104814;28;20162;-67
2023/06/26 07:02:41;;;;;;;13.38;4.65;;;;;;;;;;5106872;28;20154;-67
2023/06/26 07:05:48;;;;;;;14.45;4.85;;;;;;;;;;5103411;28;20383;-68
2023/06/26 07:09:28;;;;;;;14.98;5.10;;;;;;;;;;5095446;28;20039;-66
2023/06/26 07:13:08;;;;;;;20.55;4.93;;;;;;;;;;5100466;28;20562;-66
2023/06/26 07:16:49;;;;;;;14.80;5.28;;;;;;;;;;5096300;28;20134;-64
2023/06/26 07:20:29;;;;;;;17.05;5.15;;;;;;;;;;5096475;28;20122;-67
2023/06/26 07:23:30;;;;;;;12.15;4.97;;;;;;;;;;5098065;28;20116;-67
2023/06/26 07:26:36;;;;;;;14.80;4.85;;;;;;;;;;5093187;28;20055;-67
2023/06/26 07:30:05;;;;;;;12.13;4.25;;;;;;;;;;5096675;28;20042;-66
2023/06/26 07:32:31;;;;;;;11.13;4.60;;;;;;;;;;5079481;28;20048;-67
2023/06/26 07:34:57;;;;;;;11.45;4.32;;;;;;;;;;5105118;28;20055;-66
2023/06/26 07:37:25;;;;;;;9.73;4.70;;;;;;;;;;5097420;28;20564;-67
2023/06/26 07:40:32;;;;;;;13.07;4.10;;;;;;;;;;5094951;28;20043;-66
2023/06/26 07:44:14;;;;;;;8.57;3.88;;;;;;;;;;5101932;28;20400;-72
2023/06/26 07:47:53;;;;;;;12.65;3.90;;;;;;;;;;5097290;28;20047;-72
2023/06/26 07:51:33;;;;;;;7.68;3.80;;;;;;;;;;5087892;28;20092;-72
2023/06/26 07:55:14;;;;;;;11.52;3.97;;;;;;;;;;5096847;28;20514;-72
2023/06/26 07:58:54;;;;;;;11.75;4.65;;;;;;;;;;5093868;28;20127;-71
2023/06/26 08:02:34;;;;;;;8.63;3.92;;;;;;;;;;5092053;28;20050;-71
2023/06/26 08:06:15;;;;;;;9.70;3.90;;;;;;;;;;5102481;28;20086;-72
2023/06/26 08:09:55;;;;;;;8.27;4.18;;;;;;;;;;5103956;28;20503;-73
2023/06/26 08:13:35;;;;;;;15.38;4.35;;;;;;;;;;5106128;28;20100;-72
2023/06/26 08:17:16;;;;;;;9.63;4.00;;;;;;;;;;5096655;28;20058;-71
2023/06/26 08:20:56;;;;;;;9.02;4.03;;;;;;;;;;5099762;28;20539;-71
2023/06/26 08:24:36;;;;;;;7.78;3.75;;;;;;;;;;5103576;28;20089;-72
2023/06/26 08:28:17;;;;;;;9.88;4.43;;;;;;;;;;5104086;28;20043;-72
2023/06/26 08:31:57;;;;;;;7.97;4.22;;;;;;;;;;5090037;28;20495;-74
2023/06/26 08:35:37;;;;;;;10.02;4.28;;;;;;;;;;5098533;28;20047;-72
2023/06/26 08:39:19;;;;;;;9.77;4.00;;;;;;;;;;5105284;28;20036;-73
2023/06/26 08:43:04;;;;;;;14.40;4.75;;;;;;;;;;5089798;28;20051;-73
2023/06/26 08:46:43;;;;;;;10.23;3.97;;;;;;;;;;5089659;28;20150;-71
2023/06/26 08:50:24;;;;;;;10.02;4.40;;;;;;;;;;5091256;28;20054;-71
2023/06/26 08:54:19;;;;;;;5.93;3.70;;;;;;;;;;5098913;28;20048;-72
2023/06/26 08:58:00;;;;;;;8.70;4.07;;;;;;;;;;5100631;28;20113;-71
2023/06/26 09:01:40;;;;;;;14.80;5.32;;;;;;;;;;5091778;28;20052;-75
2023/06/26 09:05:20;;;;;;;12.60;6.43;;;;;;;;;;5102479;28;20059;-73
2023/06/26 09:09:01;;;;;;;9.98;4.63;;;;;;;;;;5101934;28;20050;-71
2023/06/26 09:12:42;;;;;;;13.10;4.70;;;;;;;;;;5107352;28;20048;-71
2023/06/26 09:16:26;;;;;;;10.60;4.60;;;;;;;;;;5099831;28;20056;-72
2023/06/26 09:20:07;;;;;;;12.77;4.85;;;;;;;;;;5105791;28;20036;-73
2023/06/26 09:23:46;;;;;;;11.90;4.88;;;;;;;;;;5094900;28;20047;-74
2023/06/26 09:27:26;;;;;;;14.10;4.53;;;;;;;;;;5098914;28;20427;-72
2023/06/26 09:31:06;;;;;;;11.50;4.78;;;;;;;;;;5093427;28;20048;-73
2023/06/26 09:34:47;;;;;;;11.43;4.35;;;;;;;;;;5102188;28;20328;-71
2023/06/26 09:38:27;;;;;;;12.93;4.50;;;;;;;;;;5099600;28;20051;-71
2023/06/26 09:42:07;;;;;;;14.45;4.22;;;;;;;;;;5090507;28;20078;-72
2023/06/26 09:45:48;;;;;;;8.85;4.50;;;;;;;;;;5105655;28;20047;-74
2023/06/26 09:49:28;;;;;;;12.18;4.38;;;;;;;;;;5102269;28;20075;-75
2023/06/26 09:53:10;;;;;;;8.82;4.35;;;;;;;;;;5098652;28;20356;-75
2023/06/26 09:56:50;;;;;;;12.50;4.70;;;;;;;;;;5105399;28;20080;-75
2023/06/26 10:00:30;;;;;;;10.38;3.97;;;;;;;;;;5090488;28;20451;-72
2023/06/26 10:04:11;;;;;;;12.85;3.53;;;;;;;;;;5106511;28;20086;-73
2023/06/26 10:07:51;;;;;;;9.35;4.03;;;;;;;;;;5110297;28;20525;-74
2023/06/26 10:11:31;;;;;;;12.77;4.30;;;;;;;;;;5101203;28;20084;-72
2023/06/26 10:15:17;;;;;;;7.25;3.80;;;;;;;;;;5108453;28;20100;-76
2023/06/26 10:18:58;;;;;;;8.95;4.05;;;;;;;;;;5110019;28;20070;-73
2023/06/26 10:22:38;;;;;;;7.70;4.00;;;;;;;;;;5097463;28;20032;-75
2023/06/26 10:26:18;;;;;;;10.60;4.00;;;;;;;;;;5101211;28;20058;-74
2023/06/26 10:29:59;;;;;;;7.05;4.00;;;;;;;;;;5102417;28;20075;-72
2023/06/26 10:33:39;;;;;;;18.33;4.50;;;;;;;;;;5093726;28;20051;-74
2023/06/26 10:37:19;;;;;;;7.40;3.83;;;;;;;;;;5096428;28;20126;-72
2023/06/26 10:41:06;;;;;;;7.20;3.90;;;;;;;;;;5102184;27;20035;-75
2023/06/26 10:44:49;;;;;;;7.85;3.42;;;;;;;;;;5101310;28;20048;-71
2023/06/26 10:48:30;;;;;;;6.68;3.97;;;;;;;;;;5097623;28;20127;-71
2023/06/26 10:52:10;;;;;;;7.78;3.75;;;;;;;;;;5101250;28;20106;-73
2023/06/26 10:55:51;;;;;;;10.57;3.80;;;;;;;;;;5097524;28;20165;-74
2023/06/26 10:59:34;;;;;;;10.05;3.70;;;;;;;;;;5094253;28;20055;-72
2023/06/26 11:03:15;;;;;;;9.50;3.88;;;;;;;;;;5094352;28;20036;-74
2023/06/26 11:06:59;;;;;;;8.88;3.72;;;;;;;;;;5102495;28;20120;-72
2023/06/26 11:10:50;;;;;;;7.97;3.78;;;;;;;;;;5104876;27;20167;-71
2023/06/26 11:14:31;;;;;;;8.00;3.70;;;;;;;;;;5106333;28;20525;-72
2023/06/26 11:18:11;;;;;;;7.70;3.90;;;;;;;;;;5092255;28;20147;-72
2023/06/26 11:21:52;;;;;;;7.22;3.92;;;;;;;;;;5100050;28;20091;-72
2023/06/26 11:25:32;;;;;;;8.82;3.85;;;;;;;;;;5101411;28;20123;-73
2023/06/26 11:29:15;;;;;;;9.70;4.05;;;;;;;;;;5094022;28;20454;-72
2023/06/26 11:32:55;;;;;;;7.65;3.38;;;;;;;;;;5096915;28;20042;-73
2023/06/26 11:36:37;;;;;;;8.88;3.70;;;;;;;;;;5099003;28;20058;-71
2023/06/26 11:40:17;;;;;;;9.18;3.85;;;;;;;;;;5099446;27;20104;-73
2023/06/26 11:43:58;;;;;;;5.60;3.55;;;;;;;;;;5103578;28;20615;-72
2023/06/26 11:47:38;;;;;;;6.63;3.88;;;;;;;;;;5107619;28;20356;-70
2023/06/26 11:51:19;;;;;;;7.68;3.85;;;;;;;;;;5091184;28;20040;-71
2023/06/26 11:55:05;;;;;;;7.97;3.83;;;;;;;;;;5098607;28;20051;-72
2023/06/26 11:58:45;;;;;;;6.43;3.60;;;;;;;;;;5103282;28;20522;-73
2023/06/26 12:02:31;;;;;;;7.40;4.13;;;;;;;;;;5103191;28;20358;-73
2023/06/26 12:06:12;;;;;;;12.35;4.28;;;;;;;;;;5093834;28;20456;-71
2023/06/26 12:09:53;;;;;;;8.02;3.63;;;;;;;;;;5102904;28;20043;-71
2023/06/26 12:13:32;;;;;;;7.75;3.95;;;;;;;;;;5105241;28;20056;-71
2023/06/26 12:17:13;;;;;;;7.75;3.60;;;;;;;;;;5105149;28;20074;-72
2023/06/26 12:20:56;;;;;;;10.70;4.25;;;;;;;;;;5099539;28;20047;-73
2023/06/26 12:24:54;;;;;;;6.80;3.80;;;;;;;;;;5093103;28;20454;-73
2023/06/26 12:28:34;;;;;;;7.88;3.92;;;;;;;;;;5087533;28;20048;-70
2023/06/26 12:32:15;;;;;;;7.88;3.50;;;;;;;;;;5091255;28;20145;-71
2023/06/26 12:35:55;;;;;;;7.45;4.10;;;;;;;;;;5101063;28;20060;-72
2023/06/26 12:39:00;;;;;;;9.18;3.72;;;;;;;;;;5092299;28;20040;-72
2023/06/26 12:41:27;;;;;;;10.82;3.88;;;;;;;;;;5106219;28;20039;-71
2023/06/26 12:43:56;;;;;;;6.75;3.90;;;;;;;;;;5094585;28;20139;-75
2023/06/26 12:46:36;;;;;;;7.65;3.83;;;;;;;;;;5096728;28;20142;-72
2023/06/26 12:49:02;;;;;;;7.63;3.85;;;;;;;;;;5109953;28;20067;-73
2023/06/26 12:51:29;;;;;;;6.45;3.80;;;;;;;;;;5108662;28;20886;-72
2023/06/26 12:53:55;;;;;;;7.13;3.42;;;;;;;;;;5104467;27;20046;-72
2023/06/26 12:56:21;;;;;;;9.48;3.90;;;;;;;;;;5089655;28;20044;-65
2023/06/26 12:58:47;;;;;;;8.02;4.18;;;;;;;;;;5093378;28;20157;-73
2023/06/26 13:01:14;;;;;;;5.78;4.00;;;;;;;;;;5097354;28;20128;-71
2023/06/26 13:03:41;;;;;;;10.38;4.07;;;;;;;;;;5094451;28;20052;-70
2023/06/26 13:06:07;;;;;;;6.97;4.07;;;;;;;;;;5113202;27;20055;-71
2023/06/26 13:08:34;;;;;;;8.45;3.75;;;;;;;;;;5099221;27;20048;-73
2023/06/26 13:11:00;;;;;;;6.57;3.55;;;;;;;;;;5099242;28;20055;-70
2023/06/26 13:13:29;;;;;;;5.40;3.55;;;;;;;;;;5077960;28;20086;-73
2023/06/26 13:15:55;;;;;;;6.63;3.88;;;;;;;;;;5084407;28;20587;-68
2023/06/26 13:18:22;;;;;;;11.80;4.13;;;;;;;;;;5095247;28;20075;-72
2023/06/26 13:20:50;;;;;;;9.65;4.10;;;;;;;;;;5094516;28;20055;-75
2023/06/26 13:23:16;;;;;;;8.88;3.97;;;;;;;;;;5103390;28;20139;-73
2023/06/26 13:25:43;;;;;;;6.60;3.53;;;;;;;;;;5091002;28;20171;-71
2023/06/26 13:28:11;;;;;;;8.13;3.70;;;;;;;;;;5092204;28;20066;-72
2023/06/26 13:30:37;;;;;;;7.70;3.80;;;;;;;;;;5102782;28;20043;-71
2023/06/26 13:33:03;;;;;;;6.68;3.30;;;;;;;;;;5087243;28;20054;-73
2023/06/26 13:35:29;;;;;;;7.88;3.80;;;;;;;;;;5087375;28;20051;-69
2023/06/26 13:37:56;;;;;;;11.23;3.70;;;;;;;;;;5080784;28;20481;-70
2023/06/26 13:40:22;;;;;;;8.20;3.85;;;;;;;;;;5091115;27;20047;-71
2023/06/26 13:42:48;;;;;;;8.40;3.20;;;;;;;;;;5073511;28;20042;-75
2023/06/26 13:45:15;;;;;;;6.22;3.40;;;;;;;;;;5096159;28;20048;-73
2023/06/26 13:47:41;;;;;;;12.38;4.20;;;;;;;;;;5093848;27;20081;-73
2023/06/26 13:50:09;;;;;;;12.13;3.97;;;;;;;;;;5100605;27;20055;-74
2023/06/26 13:52:36;;;;;;;11.82;3.55;;;;;;;;;;5083083;28;20444;-72
2023/06/26 13:55:06;;;;;;;6.40;3.70;;;;;;;;;;5097935;27;20047;-72
2023/06/26 13:57:33;;;;;;;7.65;3.30;;;;;;;;;;5086600;28;20074;-70
2023/06/26 14:00:03;;;;;;;6.35;3.53;;;;;;;;;;5094367;28;20232;-72
2023/06/26 14:02:30;;;;;;;6.50;3.35;;;;;;;;;;5102420;28;20047;-76
2023/06/26 14:04:57;;;;;;;12.77;4.05;;;;;;;;;;5103102;27;20183;-70
2023/06/26 14:07:23;;;;;;;7.00;3.83;;;;;;;;;;5106788;28;20146;-72
2023/06/26 14:09:49;;;;;;;9.60;3.42;;;;;;;;;;5102891;27;20048;-71
2023/06/26 14:12:16;;;;;;;10.07;3.70;;;;;;;;;;5091846;28;20448;-72
2023/06/26 14:14:43;;;;;;;8.23;3.70;;;;;;;;;;5096212;27;20441;-70
2023/06/26 14:17:10;;;;;;;9.88;3.85;;;;;;;;;;5076857;28;20052;-72
2023/06/26 14:19:37;;;;;;;9.15;3.90;;;;;;;;;;5083206;28;20139;-73
2023/06/26 14:22:03;;;;;;;8.77;3.83;;;;;;;;;;5074579;28;20047;-71
2023/06/26 14:24:30;;;;;;;8.98;4.03;;;;;;;;;;5079601;28;20048;-69
2023/06/26 14:26:55;;;;;;;11.40;3.88;;;;;;;;;;5084496;28;20059;-70
2023/06/26 14:29:33;;;;;;;8.90;3.92;;;;;;;;;;5083930;28;20132;-70
2023/06/26 14:31:59;;;;;;;9.15;3.92;;;;;;;;;;5058611;28;20044;-73
2023/06/26 14:34:26;;;;;;;9.30;3.83;;;;;;;;;;5086644;28;20063;-75
2023/06/26 14:36:52;;;;;;;6.97;3.55;;;;;;;;;;5084040;28;20058;-72
2023/06/26 14:39:19;;;;;;;10.82;4.20;;;;;;;;;;5079490;28;20052;-74
2023/06/26 14:41:44;;;;;;;7.47;4.18;;;;;;;;;;5075928;28;20695;-74
2023/06/26 14:44:10;;;;;;;11.32;4.07;;;;;;;;;;5077568;28;20135;-72
2023/06/26 14:46:37;;;;;;;11.80;3.95;;;;;;;;;;5081923;28;20056;-72
2023/06/26 14:49:04;;;;;;;10.48;3.85;;;;;;;;;;5083517;28;20055;-75
2023/06/26 14:51:30;;;;;;;7.93;4.07;;;;;;;;;;5079939;27;20059;-72
2023/06/26 14:53:56;;;;;;;9.98;3.97;;;;;;;;;;5086228;28;20047;-76
2023/06/26 14:56:22;;;;;;;9.40;3.72;;;;;;;;;;5080173;27;20052;-72
2023/06/26 14:58:51;;;;;;;10.38;4.28;;;;;;;;;;5090804;27;20415;-74
2023/06/26 15:01:22;;;;;;;11.38;4.18;;;;;;;;;;5098779;27;20139;-73
2023/06/26 15:03:48;;;;;;;7.22;3.83;;;;;;;;;;5091031;28;20159;-77
2023/06/26 15:06:14;;;;;;;8.80;3.83;;;;;;;;;;5096456;27;20103;-76
2023/06/26 15:08:40;;;;;;;8.45;3.78;;;;;;;;;;5098209;28;20067;-75
2023/06/26 15:11:07;;;;;;;9.95;3.95;;;;;;;;;;5095027;28;20058;-66
2023/06/26 15:13:35;;;;;;;8.18;3.85;;;;;;;;;;5102572;27;20077;-73
2023/06/26 15:16:02;;;;;;;7.20;4.95;;;;;;;;;;5104259;27;20047;-73
2023/06/26 15:18:29;;;;;;;12.30;5.20;;;;;;;;;;5088559;28;20298;-74
2023/06/26 15:20:54;;;;;;;10.68;4.55;;;;;;;;;;5098979;27;20589;-74
2023/06/26 15:23:21;;;;;;;9.55;4.63;;;;;;;;;;5100272;27;20067;-73
2023/06/26 15:25:47;;;;;;;7.93;3.80;;;;;;;;;;5102665;28;20078;-73
2023/06/26 15:28:14;;;;;;;7.53;3.88;;;;;;;;;;5089905;28;20127;-75
2023/06/26 15:30:41;;;;;;;8.35;4.32;;;;;;;;;;5110277;27;20126;-75
2023/06/26 15:33:08;;;;;;;7.18;4.38;;;;;;;;;;5104076;28;20048;-70
2023/06/26 15:35:34;;;;;;;10.52;4.10;;;;;;;;;;5085476;28;20052;-75
2023/06/26 15:38:00;;;;;;;9.98;4.22;;;;;;;;;;5085745;27;20057;-72
2023/06/26 15:40:28;;;;;;;9.90;3.95;;;;;;;;;;5100990;28;20789;-72
2023/06/26 15:42:55;;;;;;;10.20;4.82;;;;;;;;;;5101921;27;20126;-73
2023/06/26 15:45:26;;;;;;;9.38;3.88;;;;;;;;;;5087866;28;20047;-75
2023/06/26 15:47:53;;;;;;;10.82;3.88;;;;;;;;;;5075277;28;20071;-71
2023/06/26 15:50:20;;;;;;;9.93;4.05;;;;;;;;;;5080948;28;20535;-74
2023/06/26 15:52:46;;;;;;;9.18;4.20;;;;;;;;;;5093796;28;20055;-74
2023/06/26 15:55:12;;;;;;;9.05;3.80;;;;;;;;;;5079496;28;20353;-76
2023/06/26 15:57:44;;;;;;;7.53;4.05;;;;;;;;;;5093876;28;20134;-73
2023/06/26 16:00:13;;;;;;;7.75;4.10;;;;;;;;;;5098662;28;20119;-74
2023/06/26 16:02:39;;;;;;;9.93;4.10;;;;;;;;;;5091189;28;20056;-80
2023/06/26 16:05:06;;;;;;;8.10;3.97;;;;;;;;;;5097710;27;20050;-74
2023/06/26 16:07:33;;;;;;;10.63;4.03;;;;;;;;;;5101729;28;20543;-73
2023/06/26 16:09:59;;;;;;;10.30;4.00;;;;;;;;;;5101421;28;20051;-71
2023/06/26 16:12:26;;;;;;;5.10;3.35;;;;;;;;;;5082167;28;20054;-71
2023/06/26 16:14:53;;;;;;;9.20;4.07;;;;;;;;;;5075384;28;20531;-71
2023/06/26 16:17:20;;;;;;;10.68;3.95;;;;;;;;;;5083325;28;20048;-71
2023/06/26 16:19:45;;;;;;;9.75;4.25;;;;;;;;;;5074447;28;20126;-70
2023/06/26 16:22:11;;;;;;;7.32;4.18;;;;;;;;;;5086813;28;20044;-72
2023/06/26 16:24:38;;;;;;;12.18;4.30;;;;;;;;;;5089401;28;21470;-70
2023/06/26 16:27:06;;;;;;;9.02;3.60;;;;;;;;;;5096098;28;20123;-73
2023/06/26 16:29:33;;;;;;;9.40;3.85;;;;;;;;;;5093820;28;20040;-72
2023/06/26 16:32:00;;;;;;;10.77;4.18;;;;;;;;;;5084089;28;20048;-74
2023/06/26 16:34:27;;;;;;;10.13;3.80;;;;;;;;;;5094953;28;20048;-73
2023/06/26 16:36:53;;;;;;;8.80;3.85;;;;;;;;;;5081168;28;20048;-76
2023/06/26 16:39:21;;;;;;;8.63;4.00;;;;;;;;;;5081271;28;20537;-73
2023/06/26 16:41:54;;;;;;;12.13;3.90;;;;;;;;;;5088644;28;20060;-76
2023/06/26 16:44:21;;;;;;;10.90;3.75;;;;;;;;;;5089766;28;20067;-75
2023/06/26 16:46:48;;;;;;;11.73;3.78;;;;;;;;;;5087923;28;20367;-74
2023/06/26 16:49:14;;;;;;;12.30;3.65;;;;;;;;;;5082478;28;20075;-76
2023/06/26 16:51:40;;;;;;;8.25;3.40;;;;;;;;;;5090016;28;20047;-77
2023/06/26 16:54:07;;;;;;;8.52;3.60;;;;;;;;;;5084668;28;20062;-78
2023/06/26 16:56:36;;;;;;;8.57;3.78;;;;;;;;;;5101509;27;20066;-77
2023/06/26 16:59:02;;;;;;;10.52;4.00;;;;;;;;;;5077547;28;20044;-74
2023/06/26 17:01:28;;;;;;;10.30;3.65;;;;;;;;;;5079725;28;20162;-75
2023/06/26 17:03:54;;;;;;;8.77;3.50;;;;;;;;;;5080053;28;20475;-75
2023/06/26 17:06:22;;;;;;;12.27;3.78;;;;;;;;;;5078186;28;20052;-73
2023/06/26 17:08:47;;;;;;;10.77;3.90;;;;;;;;;;5083145;28;20109;-75
2023/06/26 17:11:14;;;;;;;13.52;4.03;;;;;;;;;;5073839;28;20050;-76
2023/06/26 17:13:41;;;;;;;9.77;3.55;;;;;;;;;;5107358;27;20064;-74
2023/06/26 17:16:11;;;;;;;9.13;3.83;;;;;;;;;;5089304;28;20096;-77